Olympic Scout — WDD7216 — position and weather

sailwx.info

Track history (hours):
 
Tides and Currents Weather Stations Pressure Air Temp Water Temp Dewpoint Dewpoint Depression Visibility Wind Speed Wind Dir Waves Ship Positions

Olympic Scout

Owner: Harley Marine Services, Inc., Seattle, WA. More information available from US FCC via Universal Licensing System and Coast Guard Vessel Documentation Center.

Last reported at 2018-Apr-20 12:23 UTC. Time now 2018-Apr-20 12:49 UTC.
Position N 48°48' W 122°44'.

Length 31 m; draft 0.3 m.

Type: Tug. MMSI: 366998440.

Date/timePositionNaut miles runAvg speedWind from/ knotsBaromVisibWave heightAir tempDewpointWater temp
2018-Apr-20 12:23N 48°48' W 122°44'3 5.3
2018-Apr-20 11:50N 48°45' W 122°45'2 6.4
2018-Apr-20 11:29N 48°43' W 122°44'3 6.2
2018-Apr-20 11:00N 48°40' W 122°42'3 6.1
2018-Apr-20 10:30N 48°38' W 122°44'3 5.9
2018-Apr-20 10:00N 48°35' W 122°45'3 5.9
2018-Apr-20 09:30N 48°32' W 122°45'3 5.9
2018-Apr-20 08:59N 48°29' W 122°44'3 6.0
2018-Apr-20 08:30N 48°26' W 122°44'3 6.8
2018-Apr-20 08:00N 48°22' W 122°44'3 6.2
2018-Apr-20 07:30N 48°19' W 122°46'25 6.3
2018-Apr-20 03:35N 47°57' W 122°31'1 6.6
2018-Apr-20 03:30N 47°56' W 122°31'3 5.8
2018-Apr-20 03:00N 47°54' W 122°28'3 6.1
2018-Apr-20 02:30N 47°51' W 122°27'3 6.5
2018-Apr-20 02:00N 47°48' W 122°26'3 5.9
2018-Apr-20 01:30N 47°45' W 122°26'3 5.9
2018-Apr-20 01:00N 47°42' W 122°27'3 5.9
2018-Apr-20 00:30N 47°39' W 122°27'3 6.1
2018-Apr-20 00:00N 47°36' W 122°27'3 6.2
2018-Apr-19 23:30N 47°33' W 122°26'3 6.0
2018-Apr-19 23:00N 47°30' W 122°25'3 6.5
2018-Apr-19 22:30N 47°27' W 122°24'3 6.8
2018-Apr-19 22:00N 47°24' W 122°21'3 6.0
2018-Apr-19 21:30N 47°21' W 122°23'3 6.9
2018-Apr-19 21:00N 47°19' W 122°27'2 3.9
2018-Apr-19 20:30N 47°17' W 122°26'2 4.0
2018-Apr-19 20:00N 47°16' W 122°23'0 0.7
2018-Apr-19 19:30N 47°16' W 122°23'0 0.0
2018-Apr-19 19:00N 47°16' W 122°23'0 0.5
2018-Apr-19 18:29N 47°16' W 122°23'0 0.5
2018-Apr-19 17:53N 47°16' W 122°23'0 0.0
2018-Apr-19 17:29N 47°16' W 122°23'0 0.0
2018-Apr-19 16:59N 47°16' W 122°23'0 0.0
2018-Apr-19 16:30N 47°16' W 122°23'0 0.1
2018-Apr-19 16:00N 47°16' W 122°23'0 0.0
2018-Apr-19 15:30N 47°16' W 122°23'0 0.0
2018-Apr-19 15:00N 47°16' W 122°23'0 0.1
2018-Apr-19 14:30N 47°16' W 122°23'0 0.1
2018-Apr-19 14:00N 47°16' W 122°23'0 0.8
2018-Apr-19 13:30N 47°16' W 122°23'1 2.8
2018-Apr-19 12:59N 47°17' W 122°25'1 2.9
2018-Apr-19 12:30N 47°17' W 122°27'2 4.1
2018-Apr-19 12:01N 47°19' W 122°28'2 4.4
2018-Apr-19 11:30N 47°21' W 122°26'3 5.2
2018-Apr-19 11:00N 47°23' W 122°23'3 5.3
2018-Apr-19 10:31N 47°25' W 122°24'3 5.9
2018-Apr-19 10:00N 47°28' W 122°25'3 6.2
2018-Apr-19 09:30N 47°31' W 122°27'3 5.9
2018-Apr-19 09:01N 47°34' W 122°27'3 6.1
2018-Apr-19 08:30N 47°36' W 122°23'2 3.1
2018-Apr-19 08:00N 47°36' W 122°21'0 0.7
2018-Apr-19 07:29N 47°35' W 122°21'0 0.0
2018-Apr-19 06:59N 47°35' W 122°21'0 0.0
2018-Apr-19 06:29N 47°35' W 122°21'0 0.0
2018-Apr-19 05:59N 47°35' W 122°21'0 0.0
2018-Apr-19 05:29N 47°35' W 122°21'0 0.0
2018-Apr-19 04:59N 47°35' W 122°21'0 0.0
2018-Apr-19 04:29N 47°35' W 122°21'0 0.0
2018-Apr-19 03:59N 47°35' W 122°21'0 0.0
2018-Apr-19 03:29N 47°35' W 122°21'0 0.0
2018-Apr-19 02:56N 47°35' W 122°21'0 0.0
2018-Apr-19 02:29N 47°35' W 122°21'0 0.0
2018-Apr-19 01:59N 47°35' W 122°21'0 0.0
2018-Apr-19 01:29N 47°35' W 122°21'0 0.0
2018-Apr-19 00:59N 47°35' W 122°21'0 0.0
2018-Apr-19 00:30N 47°35' W 122°21'0 0.5
2018-Apr-19 00:00N 47°35' W 122°21'1 1.6
2018-Apr-18 23:30N 47°34' W 122°21'0 0.0
2018-Apr-18 23:00N 47°34' W 122°21'0 0.0
2018-Apr-18 22:30N 47°34' W 122°21'1 2.1
2018-Apr-18 22:00N 47°35' W 122°21'0 0.0
2018-Apr-18 21:30N 47°35' W 122°21'0 0.0
2018-Apr-18 21:00N 47°35' W 122°21'1 1.8
2018-Apr-18 20:25N 47°34' W 122°21'0 0.0
2018-Apr-18 19:58N 47°34' W 122°21'0 0.0
2018-Apr-18 19:28N 47°34' W 122°21'0 0.0
2018-Apr-18 18:04N 47°34' W 122°21'0 0.1
2018-Apr-18 17:58N 47°34' W 122°21'0 0.0
2018-Apr-18 17:28N 47°34' W 122°21'0 0.0
2018-Apr-18 16:55N 47°34' W 122°21'0 0.0
2018-Apr-18 16:28N 47°34' W 122°21'0 0.1
2018-Apr-18 16:00N 47°34' W 122°21'1 2.1
2018-Apr-18 15:30N 47°35' W 122°21'0 0.8
2018-Apr-18 15:00N 47°36' W 122°21'1 2.6
2018-Apr-18 14:30N 47°37' W 122°22'0 0.2
2018-Apr-18 13:59N 47°37' W 122°22'0 0.0
2018-Apr-18 13:29N 47°37' W 122°22'0 0.1
2018-Apr-18 12:59N 47°37' W 122°22'0 0.2
2018-Apr-18 12:29N 47°37' W 122°22'0 0.2
2018-Apr-18 11:59N 47°37' W 122°22'0 0.0
2018-Apr-18 11:29N 47°37' W 122°22'0 0.1
2018-Apr-18 10:59N 47°37' W 122°22'0 0.1
2018-Apr-18 10:29N 47°37' W 122°22'0 0.0
2018-Apr-18 09:59N 47°37' W 122°22'0 0.2
2018-Apr-18 09:26N 47°37' W 122°22'0 0.0
2018-Apr-18 08:53N 47°37' W 122°22'0 0.0
2018-Apr-18 08:29N 47°37' W 122°22'0 0.0
2018-Apr-18 07:59N 47°37' W 122°22'0 0.0
2018-Apr-18 07:26N 47°37' W 122°22'0 0.1
2018-Apr-18 06:59N 47°37' W 122°22'0 0.0
2018-Apr-18 06:29N 47°37' W 122°22'0 0.0
2018-Apr-18 05:47N 47°37' W 122°22'0 0.1
2018-Apr-18 05:29N 47°37' W 122°22'0 0.0
2018-Apr-18 05:00N 47°37' W 122°22'0 0.2
2018-Apr-18 04:30N 47°37' W 122°22'0 0.3
2018-Apr-18 04:00N 47°37' W 122°22'1 1.2
2018-Apr-18 03:30N 47°37' W 122°22'1 2.4
2018-Apr-18 02:53N 47°35' W 122°21'0 0.0
2018-Apr-18 02:06N 47°35' W 122°21'0 0.0
2018-Apr-18 01:58N 47°35' W 122°21'0 0.0
2018-Apr-18 01:29N 47°35' W 122°21'0 0.0
2018-Apr-18 00:59N 47°35' W 122°21'0 0.0
2018-Apr-18 00:30N 47°35' W 122°21'0 0.0
2018-Apr-17 23:58N 47°35' W 122°21'0 0.1
2018-Apr-17 23:30N 47°35' W 122°21'0 0.0
2018-Apr-17 23:00N 47°35' W 122°21'0 0.0
2018-Apr-17 22:30N 47°35' W 122°21'0 0.0
2018-Apr-17 22:00N 47°35' W 122°21'0 0.0
2018-Apr-17 21:30N 47°35' W 122°21'0 0.0
2018-Apr-17 21:00N 47°35' W 122°21'0 0.3
2018-Apr-17 20:30N 47°35' W 122°21'1 1.6
2018-Apr-17 20:00N 47°34' W 122°21'0 0.0
2018-Apr-17 19:30N 47°34' W 122°21'0 0.0
2018-Apr-17 19:00N 47°34' W 122°21'0 0.0
2018-Apr-17 18:30N 47°34' W 122°21'0 0.0
2018-Apr-17 18:00N 47°34' W 122°21'0 0.0
2018-Apr-17 17:30N 47°34' W 122°21'0 0.0
2018-Apr-17 17:00N 47°34' W 122°21'1 1.9
2018-Apr-17 16:29N 47°35' W 122°21'1 1.3
2018-Apr-17 16:00N 47°36' W 122°21'0 0.3
2018-Apr-17 15:30N 47°36' W 122°21'0 0.0
2018-Apr-17 14:56N 47°36' W 122°21'0 0.1
2018-Apr-17 14:30N 47°36' W 122°21'0 0.0
2018-Apr-17 14:00N 47°36' W 122°21'0 0.0
2018-Apr-17 13:30N 47°36' W 122°21'0 0.1
2018-Apr-17 12:59N 47°36' W 122°21'0 0.0
2018-Apr-17 12:30N 47°36' W 122°21'0 0.0
2018-Apr-17 12:00N 47°36' W 122°21'0 0.1
2018-Apr-17 11:30N 47°36' W 122°21'0 0.0
2018-Apr-17 11:00N 47°36' W 122°21'0 0.0
2018-Apr-17 10:22N 47°36' W 122°21'0 0.0
2018-Apr-17 09:58N 47°36' W 122°21'0 0.1
2018-Apr-17 09:30N 47°36' W 122°21'0 0.0
2018-Apr-17 08:50N 47°36' W 122°21'0 0.0
2018-Apr-17 08:30N 47°36' W 122°21'0 0.0
2018-Apr-17 07:54N 47°36' W 122°21'0 0.1
2018-Apr-17 07:30N 47°36' W 122°21'0 0.0
2018-Apr-17 06:59N 47°36' W 122°21'0 0.1
2018-Apr-17 06:30N 47°36' W 122°21'0 0.1
2018-Apr-17 05:51N 47°36' W 122°21'0 0.1
2018-Apr-17 05:19N 47°36' W 122°21'0 0.2
2018-Apr-17 05:00N 47°36' W 122°21'0 0.2
2018-Apr-17 04:27N 47°36' W 122°21'1 1.8
2018-Apr-17 04:00N 47°36' W 122°22'1 1.9
2018-Apr-17 03:30N 47°37' W 122°24'3 5.4
2018-Apr-17 02:59N 47°38' W 122°27'2 4.9
2018-Apr-17 02:30N 47°41' W 122°28'2 4.9
2018-Apr-17 02:00N 47°43' W 122°28'3 5.2
2018-Apr-17 01:30N 47°46' W 122°27'3 5.1
2018-Apr-17 01:00N 47°48' W 122°28'3 5.3
2018-Apr-17 00:30N 47°51' W 122°29'3 5.1
2018-Apr-17 00:00N 47°53' W 122°29'2 5.1
2018-Apr-16 23:30N 47°55' W 122°31'27 6.7
2018-Apr-16 19:28N 48°21' W 122°47'3 6.9
2018-Apr-16 19:00N 48°24' W 122°45'4 8.4
2018-Apr-16 18:30N 48°28' W 122°45'4 8.4
2018-Apr-16 18:00N 48°31' W 122°41'3 6.1
2018-Apr-16 17:30N 48°32' W 122°37'0 0.0
2018-Apr-16 10:48N 48°31' W 122°36'0 0.0
2018-Apr-16 09:42N 48°31' W 122°36'0 0.1
2018-Apr-16 08:59N 48°31' W 122°36'0 0.0
2018-Apr-16 08:15N 48°31' W 122°36'0 0.0
2018-Apr-16 08:00N 48°31' W 122°36'0 0.0
2018-Apr-16 07:21N 48°31' W 122°36'0 1.1
2018-Apr-16 07:00N 48°31' W 122°36'1 1.2
2018-Apr-16 06:25N 48°32' W 122°35'0 0.2
2018-Apr-16 05:55N 48°32' W 122°35'0 0.4
2018-Apr-16 05:29N 48°32' W 122°35'0 0.7
2018-Apr-16 05:00N 48°32' W 122°36'0 0.9
2018-Apr-16 04:30N 48°32' W 122°36'0 0.1
2018-Apr-16 03:58N 48°31' W 122°36'1 1.7
2018-Apr-16 03:29N 48°32' W 122°35'3 4.9
2018-Apr-16 02:55N 48°34' W 122°35'3 6.7
2018-Apr-16 02:30N 48°37' W 122°37'3 6.9
2018-Apr-16 02:00N 48°39' W 122°41'3 5.9
2018-Apr-16 01:30N 48°41' W 122°44'3 5.0
2018-Apr-16 01:00N 48°44' W 122°46'5 0.8
2018-Apr-15 18:55N 48°48' W 122°44'3 5.9
2018-Apr-15 18:24N 48°46' W 122°45'2 5.6
2018-Apr-15 18:00N 48°43' W 122°44'3 5.4
2018-Apr-15 17:30N 48°41' W 122°42'3 5.9
2018-Apr-15 17:00N 48°39' W 122°39'4 6.3
2018-Apr-15 16:26N 48°36' W 122°35'1 1.7
2018-Apr-15 15:55N 48°36' W 122°34'0 0.0
2018-Apr-15 15:04N 48°36' W 122°34'0 0.1
2018-Apr-15 15:00N 48°36' W 122°34'0 0.0
2018-Apr-15 14:30N 48°36' W 122°34'0 0.0
2018-Apr-15 14:00N 48°36' W 122°34'0 0.0
2018-Apr-15 13:30N 48°36' W 122°34'0 0.0
2018-Apr-15 13:00N 48°36' W 122°34'0 0.0
2018-Apr-15 12:10N 48°36' W 122°34'0 0.0
2018-Apr-15 12:00N 48°36' W 122°34'0 0.1
2018-Apr-15 11:28N 48°36' W 122°34'0 0.1
2018-Apr-15 10:47N 48°36' W 122°34'0 0.0
2018-Apr-15 10:26N 48°36' W 122°34'0 0.1
2018-Apr-15 10:00N 48°36' W 122°34'0 0.1
2018-Apr-15 09:25N 48°36' W 122°34'0 0.0
2018-Apr-15 08:54N 48°36' W 122°34'0 0.1
2018-Apr-15 08:28N 48°36' W 122°34'0 0.8
2018-Apr-15 08:00N 48°37' W 122°34'2 3.1
2018-Apr-15 07:30N 48°37' W 122°36'3 5.6
2018-Apr-15 06:59N 48°35' W 122°40'3 5.5
2018-Apr-15 06:30N 48°33' W 122°40'2 4.8
2018-Apr-15 05:59N 48°31' W 122°43'2 4.4
2018-Apr-15 05:30N 48°29' W 122°44'2 3.8
2018-Apr-15 05:00N 48°27' W 122°44'3 5.3
2018-Apr-15 04:30N 48°24' W 122°44'3 5.4
2018-Apr-15 04:00N 48°22' W 122°45'34 5.9
2018-Apr-14 22:17N 47°50' W 122°27'2 6.8
2018-Apr-14 21:57N 47°48' W 122°26'3 6.4
2018-Apr-14 21:30N 47°45' W 122°26'3 6.2
2018-Apr-14 21:00N 47°42' W 122°26'3 5.9
2018-Apr-14 20:30N 47°39' W 122°27'3 5.9
2018-Apr-14 20:00N 47°37' W 122°24'2 4.5
2018-Apr-14 19:30N 47°36' W 122°21'1 2.1
2018-Apr-14 18:50N 47°34' W 122°21'0 0.0
2018-Apr-14 18:16N 47°34' W 122°21'0 0.0
2018-Apr-14 17:58N 47°34' W 122°21'0 0.0
2018-Apr-14 17:30N 47°34' W 122°21'0 0.0
2018-Apr-14 14:45N 47°34' W 122°21'0 0.0
2018-Apr-14 14:29N 47°34' W 122°21'0 0.0
2018-Apr-14 14:00N 47°34' W 122°21'0 0.0
2018-Apr-14 13:30N 47°34' W 122°21'0 0.0
2018-Apr-14 13:00N 47°34' W 122°21'0 0.0
2018-Apr-14 12:30N 47°34' W 122°21'0 0.0
2018-Apr-14 11:59N 47°34' W 122°21'0 0.0
2018-Apr-14 11:30N 47°34' W 122°21'0 0.0
2018-Apr-14 11:00N 47°34' W 122°21'0 0.0
2018-Apr-14 10:30N 47°34' W 122°21'0 0.0
2018-Apr-14 09:59N 47°34' W 122°21'0 0.0
2018-Apr-14 09:30N 47°34' W 122°21'0 0.0
2018-Apr-14 09:00N 47°34' W 122°21'0 0.0
2018-Apr-14 08:30N 47°34' W 122°21'0 0.0
2018-Apr-14 07:59N 47°34' W 122°21'0 0.0
2018-Apr-14 06:56N 47°34' W 122°21'0 0.0
2018-Apr-14 06:26N 47°34' W 122°21'0 0.0
2018-Apr-14 05:37N 47°34' W 122°21'0 0.0
2018-Apr-14 05:21N 47°34' W 122°21'0 0.0
2018-Apr-14 04:59N 47°34' W 122°21'0 0.0
2018-Apr-14 04:30N 47°34' W 122°21'0 0.0
2018-Apr-14 04:00N 47°34' W 122°21'0 0.0
2018-Apr-14 03:30N 47°34' W 122°21'0 0.0
2018-Apr-14 03:00N 47°34' W 122°21'0 0.0
2018-Apr-14 02:27N 47°34' W 122°21'0 0.0
2018-Apr-14 02:00N 47°34' W 122°21'0 0.0
2018-Apr-14 01:30N 47°34' W 122°21'0 0.0
2018-Apr-14 01:00N 47°34' W 122°21'0 0.0
2018-Apr-14 00:30N 47°34' W 122°21'0 0.0
2018-Apr-14 00:00N 47°34' W 122°21'0 0.0
2018-Apr-13 23:30N 47°34' W 122°21'0 0.0
2018-Apr-13 23:00N 47°34' W 122°21'0 0.0
2018-Apr-13 22:27N 47°34' W 122°21'0 0.0
2018-Apr-13 21:59N 47°34' W 122°21'0 0.0
2018-Apr-13 21:30N 47°34' W 122°21'0 0.0
2018-Apr-13 21:00N 47°34' W 122°21'0 0.0
2018-Apr-13 20:30N 47°34' W 122°21'0 0.1
2018-Apr-13 20:00N 47°34' W 122°21'0 0.1
2018-Apr-13 19:30N 47°34' W 122°21'0 0.0
2018-Apr-13 19:00N 47°34' W 122°21'0 0.0
2018-Apr-13 18:28N 47°34' W 122°21'0 0.0
2018-Apr-13 18:00N 47°34' W 122°21'0 0.0
2018-Apr-13 17:29N 47°34' W 122°21'0 0.0
2018-Apr-13 17:00N 47°34' W 122°21'0 0.0
2018-Apr-13 16:30N 47°34' W 122°21'1 1.6
2018-Apr-13 16:00N 47°35' W 122°21'2 3.0
2018-Apr-13 15:30N 47°36' W 122°23'3 5.8
2018-Apr-13 15:00N 47°35' W 122°26'4 7.3
2018-Apr-13 14:30N 47°31' W 122°25'4 7.2
2018-Apr-13 14:00N 47°28' W 122°24'4 7.0
2018-Apr-13 13:30N 47°24' W 122°22'3 6.4
2018-Apr-13 13:00N 47°21' W 122°23'3 6.4
2018-Apr-13 12:30N 47°19' W 122°27'2 3.6
2018-Apr-13 12:00N 47°17' W 122°26'1 0.1
2018-Apr-13 03:03N 47°17' W 122°25'0 3.9
2018-Apr-13 03:00N 47°17' W 122°25'1 2.6
2018-Apr-13 02:30N 47°17' W 122°27'3 5.2
2018-Apr-13 02:00N 47°20' W 122°27'3 6.0
2018-Apr-13 01:30N 47°22' W 122°24'3 5.0
2018-Apr-13 01:00N 47°24' W 122°22'3 6.4
2018-Apr-13 00:30N 47°27' W 122°25'3 6.0
2018-Apr-13 00:00N 47°30' W 122°26'3 6.1
2018-Apr-12 23:30N 47°33' W 122°27'3 5.9
2018-Apr-12 23:00N 47°35' W 122°25'2 4.6
2018-Apr-12 22:30N 47°36' W 122°21'1 1.2
2018-Apr-12 22:00N 47°35' W 122°21'1 2.1
2018-Apr-12 21:30N 47°34' W 122°21'0 0.0
2018-Apr-12 21:00N 47°34' W 122°21'1 1.6
2018-Apr-12 20:30N 47°35' W 122°21'0 0.1
2018-Apr-12 20:00N 47°35' W 122°21'1 1.7
2018-Apr-12 19:30N 47°34' W 122°21'0 0.0
2018-Apr-12 18:58N 47°34' W 122°21'0 0.0
2018-Apr-12 18:26N 47°34' W 122°21'0 1.1
2018-Apr-12 18:00N 47°35' W 122°21'1 1.1
2018-Apr-12 17:30N 47°35' W 122°21'1 1.6
2018-Apr-12 16:59N 47°36' W 122°22'2 3.7
2018-Apr-12 16:30N 47°36' W 122°25'3 6.4
2018-Apr-12 16:00N 47°33' W 122°26'4 7.6
2018-Apr-12 15:30N 47°29' W 122°24'4 7.3
2018-Apr-12 15:00N 47°26' W 122°23'3 6.7
2018-Apr-12 14:30N 47°23' W 122°21'4 7.2
2018-Apr-12 14:00N 47°21' W 122°26'2 3.4
2018-Apr-12 13:30N 47°20' W 122°28'0 0.3
2018-Apr-12 13:00N 47°20' W 122°28'0 0.1
2018-Apr-12 12:30N 47°20' W 122°28'0 0.0
2018-Apr-12 12:00N 47°20' W 122°28'0 0.0
2018-Apr-12 11:30N 47°20' W 122°28'0 0.0
2018-Apr-12 11:00N 47°20' W 122°28'0 0.0
2018-Apr-12 10:30N 47°20' W 122°28'0 0.0
2018-Apr-12 10:01N 47°20' W 122°28'0 0.0
2018-Apr-12 08:33N 47°20' W 122°28'0 0.0
2018-Apr-12 08:15N 47°20' W 122°28'0 0.0
2018-Apr-12 08:00N 47°20' W 122°28'0 0.1
2018-Apr-12 07:30N 47°20' W 122°28'0 0.1
2018-Apr-12 07:00N 47°20' W 122°28'0 0.0
2018-Apr-12 06:30N 47°20' W 122°28'0 0.0
2018-Apr-12 06:00N 47°20' W 122°28'0 0.1
2018-Apr-12 05:30N 47°20' W 122°28'0 0.1
2018-Apr-12 05:00N 47°20' W 122°28'0 0.1
2018-Apr-12 04:30N 47°20' W 122°28'0 0.0
2018-Apr-12 04:00N 47°20' W 122°28'1 1.7
2018-Apr-12 03:30N 47°19' W 122°28'3 6.4
2018-Apr-12 03:00N 47°17' W 122°25'2 3.1
2018-Apr-12 02:25N 47°16' W 122°23'0 0.0
2018-Apr-12 02:00N 47°16' W 122°23'1 0.5
2018-Apr-12 00:46N 47°16' W 122°24'1 0.1
2018-Apr-11 16:37N 47°16' W 122°23'0 0.1
2018-Apr-11 16:29N 47°16' W 122°23'2 3.7
2018-Apr-11 16:00N 47°17' W 122°25'1 3.0
2018-Apr-11 15:30N 47°18' W 122°27'2 4.5
2018-Apr-11 15:00N 47°20' W 122°27'3 5.4
2018-Apr-11 14:30N 47°22' W 122°24'2 4.9
2018-Apr-11 14:00N 47°24' W 122°22'3 5.6
2018-Apr-11 13:30N 47°26' W 122°24'3 5.4
2018-Apr-11 13:00N 47°29' W 122°26'3 5.2
2018-Apr-11 12:31N 47°31' W 122°27'3 5.1
2018-Apr-11 12:00N 47°34' W 122°27'3 5.4
2018-Apr-11 11:30N 47°36' W 122°24'2 3.8
2018-Apr-11 11:00N 47°36' W 122°21'0 0.8
2018-Apr-11 10:30N 47°35' W 122°21'0 0.0
2018-Apr-11 10:00N 47°35' W 122°21'0 0.0
2018-Apr-11 09:30N 47°35' W 122°21'0 0.0
2018-Apr-11 09:00N 47°35' W 122°21'0 0.0
2018-Apr-11 08:30N 47°35' W 122°21'0 0.0
2018-Apr-11 08:00N 47°35' W 122°21'0 0.0
2018-Apr-11 07:30N 47°35' W 122°21'0 0.0
2018-Apr-11 07:00N 47°35' W 122°21'0 0.3
2018-Apr-11 06:30N 47°36' W 122°21'0 0.1
2018-Apr-11 06:00N 47°35' W 122°21'1 2.1
2018-Apr-11 05:30N 47°34' W 122°21'0 0.0
2018-Apr-11 05:00N 47°34' W 122°21'0 0.0
2018-Apr-11 04:30N 47°34' W 122°21'0 0.0
2018-Apr-11 04:00N 47°34' W 122°21'0 0.0
2018-Apr-11 03:30N 47°34' W 122°21'0 0.0
2018-Apr-11 03:00N 47°34' W 122°21'0 0.0
2018-Apr-11 02:30N 47°34' W 122°21'0 0.0
2018-Apr-11 02:00N 47°34' W 122°21'1 1.9
2018-Apr-11 01:30N 47°35' W 122°21'1 1.9
2018-Apr-11 01:00N 47°36' W 122°22'2 4.6
2018-Apr-11 00:30N 47°35' W 122°25'3 6.4
2018-Apr-11 00:00N 47°33' W 122°28'4 7.0
2018-Apr-10 23:30N 47°29' W 122°30'3 6.9
2018-Apr-10 23:00N 47°26' W 122°31'3 6.5
2018-Apr-10 22:30N 47°23' W 122°32'3 5.9
2018-Apr-10 21:59N 47°20' W 122°32'3 5.7
2018-Apr-10 21:30N 47°18' W 122°28'2 4.7
2018-Apr-10 21:00N 47°17' W 122°25'2 4.3
2018-Apr-10 20:30N 47°16' W 122°23'0 0.4
2018-Apr-10 20:00N 47°16' W 122°23'0 0.5
2018-Apr-10 19:30N 47°16' W 122°23'0 0.0
2018-Apr-10 19:00N 47°16' W 122°23'0 0.0
2018-Apr-10 18:29N 47°16' W 122°23'0 0.0
2018-Apr-10 18:00N 47°16' W 122°23'0 0.0
2018-Apr-10 17:30N 47°16' W 122°23'0 0.0
2018-Apr-10 17:00N 47°16' W 122°23'0 0.0
2018-Apr-10 16:30N 47°16' W 122°23'0 0.0
2018-Apr-10 16:00N 47°16' W 122°23'0 0.0
2018-Apr-10 15:30N 47°16' W 122°23'0 0.0
2018-Apr-10 15:00N 47°16' W 122°23'0 0.0
2018-Apr-10 14:30N 47°16' W 122°23'0 0.0
2018-Apr-10 14:00N 47°16' W 122°23'0 0.0
2018-Apr-10 13:30N 47°16' W 122°23'0 0.0
2018-Apr-10 13:00N 47°16' W 122°23'0 0.0
2018-Apr-10 12:30N 47°16' W 122°23'  
Track history (hours):
 
Tides and Currents Weather Stations Pressure Air Temp Water Temp Dewpoint Dewpoint Depression Visibility Wind Speed Wind Dir Waves Ship Positions

Olympic Scout

Owner: Harley Marine Services, Inc., Seattle, WA. More information available from US FCC via Universal Licensing System and Coast Guard Vessel Documentation Center.

Last reported at 2018-Apr-20 12:23 UTC. Time now 2018-Apr-20 12:49 UTC.
Position N 48°48' W 122°44'.

Length 31 m; draft 0.3 m.

Type: Tug. MMSI: 366998440.

Date/timePositionNaut miles runAvg speedWind from/ knotsBaromVisibWave heightAir tempDewpointWater temp
2018-Apr-20 12:23N 48°48' W 122°44'3 5.3
2018-Apr-20 11:50N 48°45' W 122°45'2 6.4
2018-Apr-20 11:29N 48°43' W 122°44'3 6.2
2018-Apr-20 11:00N 48°40' W 122°42'3 6.1
2018-Apr-20 10:30N 48°38' W 122°44'3 5.9
2018-Apr-20 10:00N 48°35' W 122°45'3 5.9
2018-Apr-20 09:30N 48°32' W 122°45'3 5.9
2018-Apr-20 08:59N 48°29' W 122°44'3 6.0
2018-Apr-20 08:30N 48°26' W 122°44'3 6.8
2018-Apr-20 08:00N 48°22' W 122°44'3 6.2
2018-Apr-20 07:30N 48°19' W 122°46'25 6.3
2018-Apr-20 03:35N 47°57' W 122°31'1 6.6
2018-Apr-20 03:30N 47°56' W 122°31'3 5.8
2018-Apr-20 03:00N 47°54' W 122°28'3 6.1
2018-Apr-20 02:30N 47°51' W 122°27'3 6.5
2018-Apr-20 02:00N 47°48' W 122°26'3 5.9
2018-Apr-20 01:30N 47°45' W 122°26'3 5.9
2018-Apr-20 01:00N 47°42' W 122°27'3 5.9
2018-Apr-20 00:30N 47°39' W 122°27'3 6.1
2018-Apr-20 00:00N 47°36' W 122°27'3 6.2
2018-Apr-19 23:30N 47°33' W 122°26'3 6.0
2018-Apr-19 23:00N 47°30' W 122°25'3 6.5
2018-Apr-19 22:30N 47°27' W 122°24'3 6.8
2018-Apr-19 22:00N 47°24' W 122°21'3 6.0
2018-Apr-19 21:30N 47°21' W 122°23'3 6.9
2018-Apr-19 21:00N 47°19' W 122°27'2 3.9
2018-Apr-19 20:30N 47°17' W 122°26'2 4.0
2018-Apr-19 20:00N 47°16' W 122°23'0 0.7
2018-Apr-19 19:30N 47°16' W 122°23'0 0.0
2018-Apr-19 19:00N 47°16' W 122°23'0 0.5
2018-Apr-19 18:29N 47°16' W 122°23'0 0.5
2018-Apr-19 17:53N 47°16' W 122°23'0 0.0
2018-Apr-19 17:29N 47°16' W 122°23'0 0.0
2018-Apr-19 16:59N 47°16' W 122°23'0 0.0
2018-Apr-19 16:30N 47°16' W 122°23'0 0.1
2018-Apr-19 16:00N 47°16' W 122°23'0 0.0
2018-Apr-19 15:30N 47°16' W 122°23'0 0.0
2018-Apr-19 15:00N 47°16' W 122°23'0 0.1
2018-Apr-19 14:30N 47°16' W 122°23'0 0.1
2018-Apr-19 14:00N 47°16' W 122°23'0 0.8
2018-Apr-19 13:30N 47°16' W 122°23'1 2.8
2018-Apr-19 12:59N 47°17' W 122°25'1 2.9
2018-Apr-19 12:30N 47°17' W 122°27'2 4.1
2018-Apr-19 12:01N 47°19' W 122°28'2 4.4
2018-Apr-19 11:30N 47°21' W 122°26'3 5.2
2018-Apr-19 11:00N 47°23' W 122°23'3 5.3
2018-Apr-19 10:31N 47°25' W 122°24'3 5.9
2018-Apr-19 10:00N 47°28' W 122°25'3 6.2
2018-Apr-19 09:30N 47°31' W 122°27'3 5.9
2018-Apr-19 09:01N 47°34' W 122°27'3 6.1
2018-Apr-19 08:30N 47°36' W 122°23'2 3.1
2018-Apr-19 08:00N 47°36' W 122°21'0 0.7
2018-Apr-19 07:29N 47°35' W 122°21'0 0.0
2018-Apr-19 06:59N 47°35' W 122°21'0 0.0
2018-Apr-19 06:29N 47°35' W 122°21'0 0.0
2018-Apr-19 05:59N 47°35' W 122°21'0 0.0
2018-Apr-19 05:29N 47°35' W 122°21'0 0.0
2018-Apr-19 04:59N 47°35' W 122°21'0 0.0
2018-Apr-19 04:29N 47°35' W 122°21'0 0.0
2018-Apr-19 03:59N 47°35' W 122°21'0 0.0
2018-Apr-19 03:29N 47°35' W 122°21'0 0.0
2018-Apr-19 02:56N 47°35' W 122°21'0 0.0
2018-Apr-19 02:29N 47°35' W 122°21'0 0.0
2018-Apr-19 01:59N 47°35' W 122°21'0 0.0
2018-Apr-19 01:29N 47°35' W 122°21'0 0.0
2018-Apr-19 00:59N 47°35' W 122°21'0 0.0
2018-Apr-19 00:30N 47°35' W 122°21'0 0.5
2018-Apr-19 00:00N 47°35' W 122°21'1 1.6
2018-Apr-18 23:30N 47°34' W 122°21'0 0.0
2018-Apr-18 23:00N 47°34' W 122°21'0 0.0
2018-Apr-18 22:30N 47°34' W 122°21'1 2.1
2018-Apr-18 22:00N 47°35' W 122°21'0 0.0
2018-Apr-18 21:30N 47°35' W 122°21'0 0.0
2018-Apr-18 21:00N 47°35' W 122°21'1 1.8
2018-Apr-18 20:25N 47°34' W 122°21'0 0.0
2018-Apr-18 19:58N 47°34' W 122°21'0 0.0
2018-Apr-18 19:28N 47°34' W 122°21'0 0.0
2018-Apr-18 18:04N 47°34' W 122°21'0 0.1
2018-Apr-18 17:58N 47°34' W 122°21'0 0.0
2018-Apr-18 17:28N 47°34' W 122°21'0 0.0
2018-Apr-18 16:55N 47°34' W 122°21'0 0.0
2018-Apr-18 16:28N 47°34' W 122°21'0 0.1
2018-Apr-18 16:00N 47°34' W 122°21'1 2.1
2018-Apr-18 15:30N 47°35' W 122°21'0 0.8
2018-Apr-18 15:00N 47°36' W 122°21'1 2.6
2018-Apr-18 14:30N 47°37' W 122°22'0 0.2
2018-Apr-18 13:59N 47°37' W 122°22'0 0.0
2018-Apr-18 13:29N 47°37' W 122°22'0 0.1
2018-Apr-18 12:59N 47°37' W 122°22'0 0.2
2018-Apr-18 12:29N 47°37' W 122°22'0 0.2
2018-Apr-18 11:59N 47°37' W 122°22'0 0.0
2018-Apr-18 11:29N 47°37' W 122°22'0 0.1
2018-Apr-18 10:59N 47°37' W 122°22'0 0.1
2018-Apr-18 10:29N 47°37' W 122°22'0 0.0
2018-Apr-18 09:59N 47°37' W 122°22'0 0.2
2018-Apr-18 09:26N 47°37' W 122°22'0 0.0
2018-Apr-18 08:53N 47°37' W 122°22'0 0.0
2018-Apr-18 08:29N 47°37' W 122°22'0 0.0
2018-Apr-18 07:59N 47°37' W 122°22'0 0.0
2018-Apr-18 07:26N 47°37' W 122°22'0 0.1
2018-Apr-18 06:59N 47°37' W 122°22'0 0.0
2018-Apr-18 06:29N 47°37' W 122°22'0 0.0
2018-Apr-18 05:47N 47°37' W 122°22'0 0.1
2018-Apr-18 05:29N 47°37' W 122°22'0 0.0
2018-Apr-18 05:00N 47°37' W 122°22'0 0.2
2018-Apr-18 04:30N 47°37' W 122°22'0 0.3
2018-Apr-18 04:00N 47°37' W 122°22'1 1.2
2018-Apr-18 03:30N 47°37' W 122°22'1 2.4
2018-Apr-18 02:53N 47°35' W 122°21'0 0.0
2018-Apr-18 02:06N 47°35' W 122°21'0 0.0
2018-Apr-18 01:58N 47°35' W 122°21'0 0.0
2018-Apr-18 01:29N 47°35' W 122°21'0 0.0
2018-Apr-18 00:59N 47°35' W 122°21'0 0.0
2018-Apr-18 00:30N 47°35' W 122°21'0 0.0
2018-Apr-17 23:58N 47°35' W 122°21'0 0.1
2018-Apr-17 23:30N 47°35' W 122°21'0 0.0
2018-Apr-17 23:00N 47°35' W 122°21'0 0.0
2018-Apr-17 22:30N 47°35' W 122°21'0 0.0
2018-Apr-17 22:00N 47°35' W 122°21'0 0.0
2018-Apr-17 21:30N 47°35' W 122°21'0 0.0
2018-Apr-17 21:00N 47°35' W 122°21'0 0.3
2018-Apr-17 20:30N 47°35' W 122°21'1 1.6
2018-Apr-17 20:00N 47°34' W 122°21'0 0.0
2018-Apr-17 19:30N 47°34' W 122°21'0 0.0
2018-Apr-17 19:00N 47°34' W 122°21'0 0.0
2018-Apr-17 18:30N 47°34' W 122°21'0 0.0
2018-Apr-17 18:00N 47°34' W 122°21'0 0.0
2018-Apr-17 17:30N 47°34' W 122°21'0 0.0
2018-Apr-17 17:00N 47°34' W 122°21'1 1.9
2018-Apr-17 16:29N 47°35' W 122°21'1 1.3
2018-Apr-17 16:00N 47°36' W 122°21'0 0.3
2018-Apr-17 15:30N 47°36' W 122°21'0 0.0
2018-Apr-17 14:56N 47°36' W 122°21'0 0.1
2018-Apr-17 14:30N 47°36' W 122°21'0 0.0
2018-Apr-17 14:00N 47°36' W 122°21'0 0.0
2018-Apr-17 13:30N 47°36' W 122°21'0 0.1
2018-Apr-17 12:59N 47°36' W 122°21'0 0.0
2018-Apr-17 12:30N 47°36' W 122°21'0 0.0
2018-Apr-17 12:00N 47°36' W 122°21'0 0.1
2018-Apr-17 11:30N 47°36' W 122°21'0 0.0
2018-Apr-17 11:00N 47°36' W 122°21'0 0.0
2018-Apr-17 10:22N 47°36' W 122°21'0 0.0
2018-Apr-17 09:58N 47°36' W 122°21'0 0.1
2018-Apr-17 09:30N 47°36' W 122°21'0 0.0
2018-Apr-17 08:50N 47°36' W 122°21'0 0.0
2018-Apr-17 08:30N 47°36' W 122°21'0 0.0
2018-Apr-17 07:54N 47°36' W 122°21'0 0.1
2018-Apr-17 07:30N 47°36' W 122°21'0 0.0
2018-Apr-17 06:59N 47°36' W 122°21'0 0.1
2018-Apr-17 06:30N 47°36' W 122°21'0 0.1
2018-Apr-17 05:51N 47°36' W 122°21'0 0.1
2018-Apr-17 05:19N 47°36' W 122°21'0 0.2
2018-Apr-17 05:00N 47°36' W 122°21'0 0.2
2018-Apr-17 04:27N 47°36' W 122°21'1 1.8
2018-Apr-17 04:00N 47°36' W 122°22'1 1.9
2018-Apr-17 03:30N 47°37' W 122°24'3 5.4
2018-Apr-17 02:59N 47°38' W 122°27'2 4.9
2018-Apr-17 02:30N 47°41' W 122°28'2 4.9
2018-Apr-17 02:00N 47°43' W 122°28'3 5.2
2018-Apr-17 01:30N 47°46' W 122°27'3 5.1
2018-Apr-17 01:00N 47°48' W 122°28'3 5.3
2018-Apr-17 00:30N 47°51' W 122°29'3 5.1
2018-Apr-17 00:00N 47°53' W 122°29'2 5.1
2018-Apr-16 23:30N 47°55' W 122°31'27 6.7
2018-Apr-16 19:28N 48°21' W 122°47'3 6.9
2018-Apr-16 19:00N 48°24' W 122°45'4 8.4
2018-Apr-16 18:30N 48°28' W 122°45'4 8.4
2018-Apr-16 18:00N 48°31' W 122°41'3 6.1
2018-Apr-16 17:30N 48°32' W 122°37'0 0.0
2018-Apr-16 10:48N 48°31' W 122°36'0 0.0
2018-Apr-16 09:42N 48°31' W 122°36'0 0.1
2018-Apr-16 08:59N 48°31' W 122°36'0 0.0
2018-Apr-16 08:15N 48°31' W 122°36'0 0.0
2018-Apr-16 08:00N 48°31' W 122°36'0 0.0
2018-Apr-16 07:21N 48°31' W 122°36'0 1.1
2018-Apr-16 07:00N 48°31' W 122°36'1 1.2
2018-Apr-16 06:25N 48°32' W 122°35'0 0.2
2018-Apr-16 05:55N 48°32' W 122°35'0 0.4
2018-Apr-16 05:29N 48°32' W 122°35'0 0.7
2018-Apr-16 05:00N 48°32' W 122°36'0 0.9
2018-Apr-16 04:30N 48°32' W 122°36'0 0.1
2018-Apr-16 03:58N 48°31' W 122°36'1 1.7
2018-Apr-16 03:29N 48°32' W 122°35'3 4.9
2018-Apr-16 02:55N 48°34' W 122°35'3 6.7
2018-Apr-16 02:30N 48°37' W 122°37'3 6.9
2018-Apr-16 02:00N 48°39' W 122°41'3 5.9
2018-Apr-16 01:30N 48°41' W 122°44'3 5.0
2018-Apr-16 01:00N 48°44' W 122°46'5 0.8
2018-Apr-15 18:55N 48°48' W 122°44'3 5.9
2018-Apr-15 18:24N 48°46' W 122°45'2 5.6
2018-Apr-15 18:00N 48°43' W 122°44'3 5.4
2018-Apr-15 17:30N 48°41' W 122°42'3 5.9
2018-Apr-15 17:00N 48°39' W 122°39'4 6.3
2018-Apr-15 16:26N 48°36' W 122°35'1 1.7
2018-Apr-15 15:55N 48°36' W 122°34'0 0.0
2018-Apr-15 15:04N 48°36' W 122°34'0 0.1
2018-Apr-15 15:00N 48°36' W 122°34'0 0.0
2018-Apr-15 14:30N 48°36' W 122°34'0 0.0
2018-Apr-15 14:00N 48°36' W 122°34'0 0.0
2018-Apr-15 13:30N 48°36' W 122°34'0 0.0
2018-Apr-15 13:00N 48°36' W 122°34'0 0.0
2018-Apr-15 12:10N 48°36' W 122°34'0 0.0
2018-Apr-15 12:00N 48°36' W 122°34'0 0.1
2018-Apr-15 11:28N 48°36' W 122°34'0 0.1
2018-Apr-15 10:47N 48°36' W 122°34'0 0.0
2018-Apr-15 10:26N 48°36' W 122°34'0 0.1
2018-Apr-15 10:00N 48°36' W 122°34'0 0.1
2018-Apr-15 09:25N 48°36' W 122°34'0 0.0
2018-Apr-15 08:54N 48°36' W 122°34'0 0.1
2018-Apr-15 08:28N 48°36' W 122°34'0 0.8
2018-Apr-15 08:00N 48°37' W 122°34'2 3.1
2018-Apr-15 07:30N 48°37' W 122°36'3 5.6
2018-Apr-15 06:59N 48°35' W 122°40'3 5.5
2018-Apr-15 06:30N 48°33' W 122°40'2 4.8
2018-Apr-15 05:59N 48°31' W 122°43'2 4.4
2018-Apr-15 05:30N 48°29' W 122°44'2 3.8
2018-Apr-15 05:00N 48°27' W 122°44'3 5.3
2018-Apr-15 04:30N 48°24' W 122°44'3 5.4
2018-Apr-15 04:00N 48°22' W 122°45'34 5.9
2018-Apr-14 22:17N 47°50' W 122°27'2 6.8
2018-Apr-14 21:57N 47°48' W 122°26'3 6.4
2018-Apr-14 21:30N 47°45' W 122°26'3 6.2
2018-Apr-14 21:00N 47°42' W 122°26'3 5.9
2018-Apr-14 20:30N 47°39' W 122°27'3 5.9
2018-Apr-14 20:00N 47°37' W 122°24'2 4.5
2018-Apr-14 19:30N 47°36' W 122°21'1 2.1
2018-Apr-14 18:50N 47°34' W 122°21'0 0.0
2018-Apr-14 18:16N 47°34' W 122°21'0 0.0
2018-Apr-14 17:58N 47°34' W 122°21'0 0.0
2018-Apr-14 17:30N 47°34' W 122°21'0 0.0
2018-Apr-14 14:45N 47°34' W 122°21'0 0.0
2018-Apr-14 14:29N 47°34' W 122°21'0 0.0
2018-Apr-14 14:00N 47°34' W 122°21'0 0.0
2018-Apr-14 13:30N 47°34' W 122°21'0 0.0
2018-Apr-14 13:00N 47°34' W 122°21'0 0.0
2018-Apr-14 12:30N 47°34' W 122°21'0 0.0
2018-Apr-14 11:59N 47°34' W 122°21'0 0.0
2018-Apr-14 11:30N 47°34' W 122°21'0 0.0
2018-Apr-14 11:00N 47°34' W 122°21'0 0.0
2018-Apr-14 10:30N 47°34' W 122°21'0 0.0
2018-Apr-14 09:59N 47°34' W 122°21'0 0.0
2018-Apr-14 09:30N 47°34' W 122°21'0 0.0
2018-Apr-14 09:00N 47°34' W 122°21'0 0.0
2018-Apr-14 08:30N 47°34' W 122°21'0 0.0
2018-Apr-14 07:59N 47°34' W 122°21'0 0.0
2018-Apr-14 06:56N 47°34' W 122°21'0 0.0
2018-Apr-14 06:26N 47°34' W 122°21'0 0.0
2018-Apr-14 05:37N 47°34' W 122°21'0 0.0
2018-Apr-14 05:21N 47°34' W 122°21'0 0.0
2018-Apr-14 04:59N 47°34' W 122°21'0 0.0
2018-Apr-14 04:30N 47°34' W 122°21'0 0.0
2018-Apr-14 04:00N 47°34' W 122°21'0 0.0
2018-Apr-14 03:30N 47°34' W 122°21'0 0.0
2018-Apr-14 03:00N 47°34' W 122°21'0 0.0
2018-Apr-14 02:27N 47°34' W 122°21'0 0.0
2018-Apr-14 02:00N 47°34' W 122°21'0 0.0
2018-Apr-14 01:30N 47°34' W 122°21'0 0.0
2018-Apr-14 01:00N 47°34' W 122°21'0 0.0
2018-Apr-14 00:30N 47°34' W 122°21'0 0.0
2018-Apr-14 00:00N 47°34' W 122°21'0 0.0
2018-Apr-13 23:30N 47°34' W 122°21'0 0.0
2018-Apr-13 23:00N 47°34' W 122°21'0 0.0
2018-Apr-13 22:27N 47°34' W 122°21'0 0.0
2018-Apr-13 21:59N 47°34' W 122°21'0 0.0
2018-Apr-13 21:30N 47°34' W 122°21'0 0.0
2018-Apr-13 21:00N 47°34' W 122°21'0 0.0
2018-Apr-13 20:30N 47°34' W 122°21'0 0.1
2018-Apr-13 20:00N 47°34' W 122°21'0 0.1
2018-Apr-13 19:30N 47°34' W 122°21'0 0.0
2018-Apr-13 19:00N 47°34' W 122°21'0 0.0
2018-Apr-13 18:28N 47°34' W 122°21'0 0.0
2018-Apr-13 18:00N 47°34' W 122°21'0 0.0
2018-Apr-13 17:29N 47°34' W 122°21'0 0.0
2018-Apr-13 17:00N 47°34' W 122°21'0 0.0
2018-Apr-13 16:30N 47°34' W 122°21'1 1.6
2018-Apr-13 16:00N 47°35' W 122°21'2 3.0
2018-Apr-13 15:30N 47°36' W 122°23'3 5.8
2018-Apr-13 15:00N 47°35' W 122°26'4 7.3
2018-Apr-13 14:30N 47°31' W 122°25'4 7.2
2018-Apr-13 14:00N 47°28' W 122°24'4 7.0
2018-Apr-13 13:30N 47°24' W 122°22'3 6.4
2018-Apr-13 13:00N 47°21' W 122°23'3 6.4
2018-Apr-13 12:30N 47°19' W 122°27'2 3.6
2018-Apr-13 12:00N 47°17' W 122°26'1 0.1
2018-Apr-13 03:03N 47°17' W 122°25'0 3.9
2018-Apr-13 03:00N 47°17' W 122°25'1 2.6
2018-Apr-13 02:30N 47°17' W 122°27'3 5.2
2018-Apr-13 02:00N 47°20' W 122°27'3 6.0
2018-Apr-13 01:30N 47°22' W 122°24'3 5.0
2018-Apr-13 01:00N 47°24' W 122°22'3 6.4
2018-Apr-13 00:30N 47°27' W 122°25'3 6.0
2018-Apr-13 00:00N 47°30' W 122°26'3 6.1
2018-Apr-12 23:30N 47°33' W 122°27'3 5.9
2018-Apr-12 23:00N 47°35' W 122°25'2 4.6
2018-Apr-12 22:30N 47°36' W 122°21'1 1.2
2018-Apr-12 22:00N 47°35' W 122°21'1 2.1
2018-Apr-12 21:30N 47°34' W 122°21'0 0.0
2018-Apr-12 21:00N 47°34' W 122°21'1 1.6
2018-Apr-12 20:30N 47°35' W 122°21'0 0.1
2018-Apr-12 20:00N 47°35' W 122°21'1 1.7
2018-Apr-12 19:30N 47°34' W 122°21'0 0.0
2018-Apr-12 18:58N 47°34' W 122°21'0 0.0
2018-Apr-12 18:26N 47°34' W 122°21'0 1.1
2018-Apr-12 18:00N 47°35' W 122°21'1 1.1
2018-Apr-12 17:30N 47°35' W 122°21'1 1.6
2018-Apr-12 16:59N 47°36' W 122°22'2 3.7
2018-Apr-12 16:30N 47°36' W 122°25'3 6.4
2018-Apr-12 16:00N 47°33' W 122°26'4 7.6
2018-Apr-12 15:30N 47°29' W 122°24'4 7.3
2018-Apr-12 15:00N 47°26' W 122°23'3 6.7
2018-Apr-12 14:30N 47°23' W 122°21'4 7.2
2018-Apr-12 14:00N 47°21' W 122°26'2 3.4
2018-Apr-12 13:30N 47°20' W 122°28'0 0.3
2018-Apr-12 13:00N 47°20' W 122°28'0 0.1
2018-Apr-12 12:30N 47°20' W 122°28'0 0.0
2018-Apr-12 12:00N 47°20' W 122°28'0 0.0
2018-Apr-12 11:30N 47°20' W 122°28'0 0.0
2018-Apr-12 11:00N 47°20' W 122°28'0 0.0
2018-Apr-12 10:30N 47°20' W 122°28'0 0.0
2018-Apr-12 10:01N 47°20' W 122°28'0 0.0
2018-Apr-12 08:33N 47°20' W 122°28'0 0.0
2018-Apr-12 08:15N 47°20' W 122°28'0 0.0
2018-Apr-12 08:00N 47°20' W 122°28'0 0.1
2018-Apr-12 07:30N 47°20' W 122°28'0 0.1
2018-Apr-12 07:00N 47°20' W 122°28'0 0.0
2018-Apr-12 06:30N 47°20' W 122°28'0 0.0
2018-Apr-12 06:00N 47°20' W 122°28'0 0.1
2018-Apr-12 05:30N 47°20' W 122°28'0 0.1
2018-Apr-12 05:00N 47°20' W 122°28'0 0.1
2018-Apr-12 04:30N 47°20' W 122°28'0 0.0
2018-Apr-12 04:00N 47°20' W 122°28'1 1.7
2018-Apr-12 03:30N 47°19' W 122°28'3 6.4
2018-Apr-12 03:00N 47°17' W 122°25'2 3.1
2018-Apr-12 02:25N 47°16' W 122°23'0 0.0
2018-Apr-12 02:00N 47°16' W 122°23'1 0.5
2018-Apr-12 00:46N 47°16' W 122°24'1 0.1
2018-Apr-11 16:37N 47°16' W 122°23'0 0.1
2018-Apr-11 16:29N 47°16' W 122°23'2 3.7
2018-Apr-11 16:00N 47°17' W 122°25'1 3.0
2018-Apr-11 15:30N 47°18' W 122°27'2 4.5
2018-Apr-11 15:00N 47°20' W 122°27'3 5.4
2018-Apr-11 14:30N 47°22' W 122°24'2 4.9
2018-Apr-11 14:00N 47°24' W 122°22'3 5.6
2018-Apr-11 13:30N 47°26' W 122°24'3 5.4
2018-Apr-11 13:00N 47°29' W 122°26'3 5.2
2018-Apr-11 12:31N 47°31' W 122°27'3 5.1
2018-Apr-11 12:00N 47°34' W 122°27'3 5.4
2018-Apr-11 11:30N 47°36' W 122°24'2 3.8
2018-Apr-11 11:00N 47°36' W 122°21'0 0.8
2018-Apr-11 10:30N 47°35' W 122°21'0 0.0
2018-Apr-11 10:00N 47°35' W 122°21'0 0.0
2018-Apr-11 09:30N 47°35' W 122°21'0 0.0
2018-Apr-11 09:00N 47°35' W 122°21'0 0.0
2018-Apr-11 08:30N 47°35' W 122°21'0 0.0
2018-Apr-11 08:00N 47°35' W 122°21'0 0.0
2018-Apr-11 07:30N 47°35' W 122°21'0 0.0
2018-Apr-11 07:00N 47°35' W 122°21'0 0.3
2018-Apr-11 06:30N 47°36' W 122°21'0 0.1
2018-Apr-11 06:00N 47°35' W 122°21'1 2.1
2018-Apr-11 05:30N 47°34' W 122°21'0 0.0
2018-Apr-11 05:00N 47°34' W 122°21'0 0.0
2018-Apr-11 04:30N 47°34' W 122°21'0 0.0
2018-Apr-11 04:00N 47°34' W 122°21'0 0.0
2018-Apr-11 03:30N 47°34' W 122°21'0 0.0
2018-Apr-11 03:00N 47°34' W 122°21'0 0.0
2018-Apr-11 02:30N 47°34' W 122°21'0 0.0
2018-Apr-11 02:00N 47°34' W 122°21'1 1.9
2018-Apr-11 01:30N 47°35' W 122°21'1 1.9
2018-Apr-11 01:00N 47°36' W 122°22'2 4.6
2018-Apr-11 00:30N 47°35' W 122°25'3 6.4
2018-Apr-11 00:00N 47°33' W 122°28'4 7.0
2018-Apr-10 23:30N 47°29' W 122°30'3 6.9
2018-Apr-10 23:00N 47°26' W 122°31'3 6.5
2018-Apr-10 22:30N 47°23' W 122°32'3 5.9
2018-Apr-10 21:59N 47°20' W 122°32'3 5.7
2018-Apr-10 21:30N 47°18' W 122°28'2 4.7
2018-Apr-10 21:00N 47°17' W 122°25'2 4.3
2018-Apr-10 20:30N 47°16' W 122°23'0 0.4
2018-Apr-10 20:00N 47°16' W 122°23'0 0.5
2018-Apr-10 19:30N 47°16' W 122°23'0 0.0
2018-Apr-10 19:00N 47°16' W 122°23'0 0.0
2018-Apr-10 18:29N 47°16' W 122°23'0 0.0
2018-Apr-10 18:00N 47°16' W 122°23'0 0.0
2018-Apr-10 17:30N 47°16' W 122°23'0 0.0
2018-Apr-10 17:00N 47°16' W 122°23'0 0.0
2018-Apr-10 16:30N 47°16' W 122°23'0 0.0
2018-Apr-10 16:00N 47°16' W 122°23'0 0.0
2018-Apr-10 15:30N 47°16' W 122°23'0 0.0
2018-Apr-10 15:00N 47°16' W 122°23'0 0.0
2018-Apr-10 14:30N 47°16' W 122°23'0 0.0
2018-Apr-10 14:00N 47°16' W 122°23'0 0.0
2018-Apr-10 13:30N 47°16' W 122°23'0 0.0
2018-Apr-10 13:00N 47°16' W 122°23'0 0.0
2018-Apr-10 12:30N 47°16' W 122°23'  

Dump ship's entire track history